createdAt,value
2019-05-19T00:00:54.885Z,111.50
2019-05-19T00:03:25.114Z,108.53
2019-05-19T00:05:58.248Z,97.80
2019-05-19T00:08:32.710Z,93.53
2019-05-19T00:11:02.096Z,97.10
2019-05-19T00:13:32.596Z,102.53
2019-05-19T00:16:02.990Z,98.50
2019-05-19T00:18:33.252Z,93.90
2019-05-19T00:21:03.473Z,95.60
2019-05-19T00:23:33.711Z,89.63
2019-05-19T00:26:04.083Z,88.77
2019-05-19T00:28:36.738Z,85.13
2019-05-19T00:31:06.893Z,86.23
2019-05-19T00:33:37.182Z,85.93
2019-05-19T00:36:07.552Z,88.27
2019-05-19T00:38:37.831Z,83.37
2019-05-19T00:41:08.086Z,84.17
2019-05-19T00:43:38.352Z,92.90
2019-05-19T00:46:08.566Z,95.50
2019-05-19T00:48:38.728Z,89.57
2019-05-19T00:51:11.738Z,83.80
2019-05-19T00:53:41.935Z,83.53
2019-05-19T00:56:13.798Z,82.77
2019-05-19T00:58:44.814Z,83.27
2019-05-19T01:01:17.666Z,93.13
2019-05-19T01:03:48.017Z,88.37
2019-05-19T01:06:18.157Z,87.20
2019-05-19T01:08:50.363Z,94.00
2019-05-19T01:11:20.595Z,89.77
2019-05-19T01:13:50.965Z,91.83
2019-05-19T01:16:22.205Z,94.80
2019-05-19T01:18:54.797Z,89.43
2019-05-19T01:21:27.052Z,95.80
2019-05-19T01:23:57.272Z,95.47
2019-05-19T01:26:27.492Z,91.20
2019-05-19T01:28:57.636Z,90.50
2019-05-19T01:31:28.167Z,97.70
2019-05-19T01:33:58.349Z,99.40
2019-05-19T01:36:29.084Z,100.17
2019-05-19T01:38:59.285Z,95.40
2019-05-19T01:41:29.517Z,91.43
2019-05-19T01:44:00.216Z,102.60
2019-05-19T01:46:30.428Z,100.50
2019-05-19T01:49:01.642Z,96.33
2019-05-19T01:51:31.809Z,93.37
2019-05-19T01:54:02.094Z,94.90
2019-05-19T01:56:33.353Z,89.03
2019-05-19T01:59:03.466Z,86.87
2019-05-19T02:01:33.610Z,89.87
2019-05-19T02:04:03.775Z,85.97
2019-05-19T02:06:35.553Z,91.17
2019-05-19T02:09:07.590Z,96.40
2019-05-19T02:11:37.891Z,93.03
2019-05-19T02:14:08.021Z,88.30
2019-05-19T02:16:39.220Z,87.27
2019-05-19T02:19:09.329Z,93.83
2019-05-19T02:21:39.503Z,95.77
2019-05-19T02:24:09.651Z,115.13
2019-05-19T02:26:39.907Z,107.00
2019-05-19T02:29:10.137Z,108.00
2019-05-19T02:31:40.409Z,103.93
2019-05-19T02:34:10.962Z,111.83
2019-05-19T02:36:42.241Z,106.07
2019-05-19T02:39:14.001Z,110.83
2019-05-19T02:41:47.262Z,106.90
2019-05-19T02:44:20.086Z,110.23
2019-05-19T02:46:51.969Z,101.47
2019-05-19T02:49:23.384Z,93.67
2019-05-19T02:51:54.129Z,88.87
2019-05-19T02:54:25.588Z,84.87
2019-05-19T02:56:56.243Z,82.63
2019-05-19T02:59:29.158Z,82.70
2019-05-19T03:02:08.839Z,85.33
2019-05-19T03:04:38.990Z,85.87
2019-05-19T03:07:09.219Z,91.63
2019-05-19T03:09:39.359Z,79.93
2019-05-19T03:12:09.603Z,83.50
2019-05-19T03:14:39.774Z,88.63
2019-05-19T03:17:09.932Z,72.17
2019-05-19T03:19:40.133Z,78.90
2019-05-19T03:22:10.316Z,77.50
2019-05-19T03:24:40.457Z,73.90
2019-05-19T03:27:12.239Z,81.70
2019-05-19T03:29:48.181Z,78.17
2019-05-19T03:32:27.805Z,78.40
2019-05-19T03:34:57.917Z,82.37
2019-05-19T03:37:28.167Z,80.90
2019-05-19T03:39:58.324Z,87.47
2019-05-19T03:42:28.546Z,88.90
2019-05-19T03:44:58.684Z,94.80
2019-05-19T03:47:29.168Z,103.53
2019-05-19T03:49:59.294Z,105.27
2019-05-19T03:52:29.414Z,100.20
2019-05-19T03:54:59.594Z,100.97
2019-05-19T03:57:29.774Z,98.97
2019-05-19T03:59:59.900Z,97.13
2019-05-19T04:02:30.421Z,100.40
2019-05-19T04:05:00.546Z,100.27
2019-05-19T04:07:33.198Z,97.17
2019-05-19T04:10:03.349Z,103.20
2019-05-19T04:12:33.505Z,100.57
2019-05-19T04:15:04.679Z,88.20
2019-05-19T04:17:34.863Z,98.33
2019-05-19T04:20:16.106Z,91.27
2019-05-19T04:22:46.389Z,91.43
2019-05-19T04:25:16.547Z,93.60
2019-05-19T04:27:46.651Z,95.00
2019-05-19T04:30:17.024Z,90.47
2019-05-19T04:32:47.460Z,90.43
2019-05-19T04:35:17.673Z,91.37
2019-05-19T04:37:47.807Z,94.17
2019-05-19T04:40:17.987Z,99.73
2019-05-19T04:42:48.172Z,100.00
2019-05-19T04:45:18.360Z,98.87
2019-05-19T04:47:48.337Z,99.20
2019-05-19T04:50:20.214Z,86.43
2019-05-19T04:52:50.361Z,95.40
2019-05-19T04:55:20.553Z,88.17
2019-05-19T04:57:50.706Z,94.17
2019-05-19T05:00:20.957Z,85.97
2019-05-19T05:02:51.232Z,91.03
2019-05-19T05:05:21.417Z,90.53
2019-05-19T05:07:51.603Z,90.30
2019-05-19T05:10:21.848Z,89.53
2019-05-19T05:12:53.266Z,89.57
2019-05-19T05:15:26.192Z,86.30
2019-05-19T05:17:56.310Z,93.67
2019-05-19T05:20:26.424Z,94.30
2019-05-19T05:22:56.586Z,92.13
2019-05-19T05:25:26.677Z,89.93
2019-05-19T05:27:56.882Z,92.60
2019-05-19T05:30:27.001Z,86.20
2019-05-19T05:32:57.224Z,85.63
2019-05-19T05:35:28.390Z,71.80
2019-05-19T05:37:58.583Z,74.83
2019-05-19T05:40:28.683Z,68.17
2019-05-19T05:43:00.359Z,72.97
2019-05-19T05:45:30.471Z,66.23
2019-05-19T05:48:02.310Z,67.00
2019-05-19T05:50:35.321Z,69.37
2019-05-19T05:53:05.548Z,66.87
2019-05-19T05:55:35.767Z,72.57
2019-05-19T05:58:06.024Z,68.20
2019-05-19T06:00:36.225Z,63.07
2019-05-19T06:03:06.474Z,62.03
2019-05-19T06:05:36.651Z,59.03
2019-05-19T06:08:06.880Z,57.50
2019-05-19T06:10:37.095Z,60.37
2019-05-19T06:13:07.333Z,61.67
2019-05-19T06:15:37.497Z,66.13
2019-05-19T06:18:07.757Z,62.17
2019-05-19T06:20:37.923Z,56.63
2019-05-19T06:23:08.076Z,59.57
2019-05-19T06:25:39.937Z,60.37
2019-05-19T06:28:10.110Z,57.43
2019-05-19T06:30:40.242Z,62.80
2019-05-19T06:33:10.430Z,62.73
2019-05-19T06:35:40.641Z,62.20
2019-05-19T06:38:10.877Z,62.47
2019-05-19T06:40:41.080Z,59.07
2019-05-19T06:43:11.249Z,58.87
2019-05-19T06:45:41.670Z,59.93
2019-05-19T06:48:11.931Z,55.60
2019-05-19T06:50:42.098Z,65.13
2019-05-19T06:53:14.698Z,60.87
2019-05-19T06:55:45.173Z,62.20
2019-05-19T06:58:15.353Z,71.13
2019-05-19T07:00:45.604Z,64.90
2019-05-19T07:03:17.006Z,71.83
2019-05-19T07:05:47.177Z,65.27
2019-05-19T07:08:17.355Z,64.57
2019-05-19T07:10:47.482Z,64.23
2019-05-19T07:13:17.666Z,64.33
2019-05-19T07:15:48.017Z,59.87
2019-05-19T07:18:18.269Z,63.20
2019-05-19T07:20:48.508Z,60.33
2019-05-19T07:23:27.959Z,62.03
2019-05-19T07:25:50.665Z,61.23
2019-05-19T07:28:21.012Z,63.63
2019-05-19T07:30:51.152Z,63.87
2019-05-19T07:33:21.276Z,59.00
2019-05-19T07:35:51.452Z,57.87
2019-05-19T07:38:21.710Z,59.03
2019-05-19T07:40:51.829Z,59.60
2019-05-19T07:43:23.044Z,57.33
2019-05-19T07:45:53.203Z,60.33
2019-05-19T07:48:23.448Z,54.60
2019-05-19T07:50:53.582Z,66.10
2019-05-19T07:53:23.760Z,66.20
2019-05-19T07:55:57.400Z,57.93
2019-05-19T07:58:27.643Z,60.73
2019-05-19T08:00:57.801Z,56.90
2019-05-19T08:03:27.959Z,58.97
2019-05-19T08:05:58.645Z,59.20
2019-05-19T08:08:29.388Z,54.60
2019-05-19T08:10:59.481Z,58.17
2019-05-19T08:13:29.965Z,59.60
2019-05-19T08:15:59.964Z,61.03
2019-05-19T08:18:30.176Z,49.70
2019-05-19T08:21:00.328Z,51.33
2019-05-19T08:23:30.519Z,49.57
2019-05-19T08:26:00.682Z,50.80
2019-05-19T08:28:30.825Z,50.67
2019-05-19T08:31:00.947Z,54.13
2019-05-19T08:33:31.125Z,53.47
2019-05-19T08:36:01.350Z,57.23
2019-05-19T08:38:31.521Z,54.80
2019-05-19T08:41:01.758Z,54.77
2019-05-19T08:43:31.949Z,53.90
2019-05-19T08:46:02.125Z,57.50
2019-05-19T08:48:32.309Z,61.30
2019-05-19T08:51:02.519Z,55.40
2019-05-19T08:53:32.726Z,55.30
2019-05-19T08:56:02.991Z,53.73
2019-05-19T08:58:33.259Z,51.70
2019-05-19T09:01:03.389Z,48.50
2019-05-19T09:03:34.635Z,51.37
2019-05-19T09:06:04.881Z,45.83
2019-05-19T09:08:35.061Z,46.47
2019-05-19T09:11:05.338Z,49.33
2019-05-19T09:13:35.522Z,47.90
2019-05-19T09:16:06.849Z,44.27
2019-05-19T09:18:38.670Z,45.73
2019-05-19T09:21:08.863Z,46.40
2019-05-19T09:23:39.103Z,45.53
2019-05-19T09:26:09.340Z,45.70
2019-05-19T09:28:39.602Z,42.83
2019-05-19T09:31:09.828Z,42.13
2019-05-19T09:33:41.680Z,45.60
2019-05-19T09:36:11.886Z,41.90
2019-05-19T09:38:42.124Z,45.27
2019-05-19T09:41:13.338Z,44.23
2019-05-19T09:43:43.495Z,45.07
2019-05-19T09:46:14.101Z,46.43
2019-05-19T09:48:44.417Z,43.47
2019-05-19T09:51:14.708Z,48.07
2019-05-19T09:53:44.982Z,43.93
2019-05-19T09:56:15.230Z,42.83
2019-05-19T09:58:45.414Z,43.17
2019-05-19T10:01:15.682Z,46.50
2019-05-19T10:03:45.950Z,49.03
2019-05-19T10:06:17.896Z,47.10
2019-05-19T10:08:53.340Z,44.37
2019-05-19T10:11:36.453Z,47.93
2019-05-19T10:14:08.269Z,43.73
2019-05-19T10:16:38.538Z,43.37
2019-05-19T10:19:08.828Z,44.30
2019-05-19T10:21:39.007Z,43.70
2019-05-19T10:24:09.607Z,41.00
2019-05-19T10:26:39.816Z,40.87
2019-05-19T10:29:11.767Z,39.77
2019-05-19T10:31:41.823Z,42.30
2019-05-19T10:34:12.219Z,42.97
2019-05-19T10:36:42.437Z,40.87
2019-05-19T10:39:12.771Z,44.03
2019-05-19T10:41:45.514Z,43.57
2019-05-19T10:44:17.401Z,39.10
2019-05-19T10:46:47.592Z,61.27
2019-05-19T10:49:17.871Z,40.87
2019-05-19T10:51:48.114Z,41.10
2019-05-19T10:54:19.213Z,36.00
2019-05-19T10:56:49.464Z,44.33
2019-05-19T10:59:20.907Z,41.27
2019-05-19T11:01:51.164Z,37.37
2019-05-19T11:04:21.403Z,37.07
2019-05-19T11:06:51.810Z,38.27
2019-05-19T11:09:22.023Z,39.40
2019-05-19T11:11:52.180Z,38.93
2019-05-19T11:14:22.563Z,40.87
2019-05-19T11:16:52.911Z,48.57
2019-05-19T11:19:23.151Z,44.23
2019-05-19T11:21:53.419Z,40.80
2019-05-19T11:24:23.641Z,40.47
2019-05-19T11:26:54.453Z,39.60
2019-05-19T11:29:24.706Z,33.80
2019-05-19T11:31:56.561Z,37.73
2019-05-19T11:34:27.966Z,37.07
2019-05-19T11:37:00.507Z,37.40
2019-05-19T11:39:30.780Z,39.97
2019-05-19T11:42:03.095Z,37.53
2019-05-19T11:44:34.868Z,38.13
2019-05-19T11:47:05.256Z,36.55
2019-05-19T11:49:37.132Z,41.07
2019-05-19T11:52:09.175Z,41.53
2019-05-19T11:54:39.363Z,43.70
2019-05-19T11:57:09.929Z,43.37
2019-05-19T11:59:40.169Z,43.63
2019-05-19T12:02:13.473Z,46.87
2019-05-19T12:04:45.743Z,48.13
2019-05-19T12:07:16.311Z,46.77
2019-05-19T12:09:47.439Z,48.97
2019-05-19T12:12:19.499Z,42.47
2019-05-19T12:14:52.885Z,45.00
2019-05-19T12:17:23.246Z,45.50
2019-05-19T12:19:53.495Z,47.13
2019-05-19T12:22:23.730Z,44.93
2019-05-19T12:24:54.487Z,48.33
2019-05-19T12:27:24.863Z,43.67
2019-05-19T12:29:55.060Z,44.87
2019-05-19T12:32:27.035Z,49.87
2019-05-19T12:34:57.277Z,42.13
2019-05-19T12:37:27.445Z,45.47
2019-05-19T12:39:57.685Z,43.37
2019-05-19T12:42:27.993Z,40.80
2019-05-19T12:44:58.170Z,47.50
2019-05-19T12:47:28.355Z,44.03
2019-05-19T12:49:58.563Z,39.57
2019-05-19T12:52:28.766Z,44.47
2019-05-19T12:54:59.020Z,46.17
2019-05-19T12:57:29.193Z,43.30
2019-05-19T13:00:00.434Z,46.97
2019-05-19T13:02:38.056Z,46.37
2019-05-19T13:05:08.780Z,50.00
2019-05-19T13:07:38.965Z,44.17
2019-05-19T13:10:09.321Z,45.03
2019-05-19T13:12:42.721Z,43.63
2019-05-19T13:15:15.559Z,45.37
2019-05-19T13:17:47.613Z,41.83
2019-05-19T13:20:19.276Z,44.80
2019-05-19T13:22:49.750Z,45.93
2019-05-19T13:25:21.619Z,48.57
2019-05-19T13:27:51.806Z,42.93
2019-05-19T13:30:23.447Z,46.83
2019-05-19T13:32:53.708Z,46.97
2019-05-19T13:35:24.020Z,48.70
2019-05-19T13:37:54.234Z,45.73
2019-05-19T13:40:24.429Z,49.27
2019-05-19T13:42:54.690Z,53.17
2019-05-19T13:45:24.918Z,49.80
2019-05-19T13:47:55.147Z,47.83
2019-05-19T13:50:25.362Z,48.77
2019-05-19T13:52:55.542Z,48.13
2019-05-19T13:55:25.788Z,45.23
2019-05-19T13:57:55.920Z,48.23
2019-05-19T14:00:26.131Z,42.33
2019-05-19T14:02:56.235Z,45.57
2019-05-19T14:05:26.532Z,45.90
2019-05-19T14:07:59.678Z,44.27
2019-05-19T14:10:32.899Z,44.73
2019-05-19T14:13:08.726Z,46.30
2019-05-19T14:15:40.332Z,44.27
2019-05-19T14:18:13.372Z,44.37
2019-05-19T14:20:46.603Z,43.97
2019-05-19T14:23:17.443Z,44.93
2019-05-19T14:25:50.869Z,43.37
2019-05-19T14:28:21.101Z,44.63
2019-05-19T14:30:52.106Z,42.70
2019-05-19T14:33:22.451Z,47.13
2019-05-19T14:35:53.835Z,46.77
2019-05-19T14:38:25.169Z,49.13
2019-05-19T14:40:57.444Z,45.37
2019-05-19T14:43:28.115Z,48.57
2019-05-19T14:45:59.268Z,52.50
2019-05-19T14:48:29.394Z,48.10
2019-05-19T14:51:02.288Z,49.50
2019-05-19T14:53:34.374Z,51.43
2019-05-19T14:56:04.532Z,52.97
2019-05-19T14:58:34.651Z,48.63
2019-05-19T15:01:04.869Z,51.27
2019-05-19T15:03:35.072Z,52.53
2019-05-19T15:06:05.224Z,50.57
2019-05-19T15:08:35.501Z,50.40
2019-05-19T15:11:05.765Z,50.90
2019-05-19T15:13:36.148Z,54.00
2019-05-19T15:16:06.380Z,52.63
2019-05-19T15:18:36.587Z,53.77
2019-05-19T15:21:06.785Z,58.30
2019-05-19T15:23:37.191Z,64.50
2019-05-19T15:26:08.919Z,56.00
2019-05-19T15:28:39.121Z,65.70
2019-05-19T15:31:09.244Z,55.17
2019-05-19T15:33:39.448Z,55.93
2019-05-19T15:36:10.751Z,56.83
2019-05-19T15:38:45.144Z,60.60
2019-05-19T15:41:15.420Z,58.67
2019-05-19T15:43:45.674Z,60.97
2019-05-19T15:46:18.128Z,66.83
2019-05-19T15:48:47.927Z,67.10
2019-05-19T15:51:28.016Z,72.50
2019-05-19T15:53:49.981Z,67.80
2019-05-19T15:56:20.149Z,65.87
2019-05-19T15:58:50.386Z,58.20
2019-05-19T16:01:20.958Z,60.50
2019-05-19T16:03:51.074Z,59.63
2019-05-19T16:06:21.201Z,56.10
2019-05-19T16:08:51.366Z,61.47
2019-05-19T16:11:21.480Z,53.63
2019-05-19T16:13:51.768Z,54.13
2019-05-19T16:16:21.959Z,49.97
2019-05-19T16:18:53.353Z,47.53
2019-05-19T16:21:23.640Z,53.70
2019-05-19T16:23:54.024Z,54.50
2019-05-19T16:26:24.730Z,51.77
2019-05-19T16:28:54.902Z,53.03
2019-05-19T16:31:25.234Z,49.97
2019-05-19T16:33:55.827Z,52.43
2019-05-19T16:36:26.125Z,54.37
2019-05-19T16:38:56.528Z,58.00
2019-05-19T16:41:27.800Z,50.67
2019-05-19T16:43:58.023Z,49.13
2019-05-19T16:46:28.176Z,47.57
2019-05-19T16:49:00.893Z,46.50
2019-05-19T16:51:31.267Z,39.90
2019-05-19T16:54:05.726Z,39.07
2019-05-19T16:56:38.449Z,39.20
2019-05-19T16:59:09.980Z,38.13
2019-05-19T17:01:40.245Z,39.50
2019-05-19T17:04:11.941Z,42.13
2019-05-19T17:06:42.255Z,43.73
2019-05-19T17:09:12.459Z,40.57
2019-05-19T17:11:42.674Z,38.17
2019-05-19T17:14:12.904Z,36.87
2019-05-19T17:16:43.018Z,34.77
2019-05-19T17:19:14.817Z,42.00
2019-05-19T17:21:45.039Z,40.67
2019-05-19T17:24:15.409Z,34.17
2019-05-19T17:26:45.515Z,41.83
2019-05-19T17:29:15.681Z,34.97
2019-05-19T17:31:45.891Z,36.70
2019-05-19T17:34:16.146Z,36.33
2019-05-19T17:36:46.286Z,33.43
2019-05-19T17:39:21.234Z,36.67
2019-05-19T17:41:57.495Z,37.47
2019-05-19T17:44:27.780Z,38.50
2019-05-19T17:46:58.100Z,34.13
2019-05-19T17:49:28.331Z,37.63
2019-05-19T17:51:59.097Z,38.17
2019-05-19T17:54:29.254Z,37.70
2019-05-19T17:57:00.327Z,32.90
2019-05-19T17:59:30.744Z,34.63
2019-05-19T18:02:00.889Z,34.83
2019-05-19T18:04:31.027Z,37.97
2019-05-19T18:07:01.247Z,31.87
2019-05-19T18:09:35.362Z,44.47
2019-05-19T18:12:05.568Z,37.77
2019-05-19T18:14:35.800Z,32.93
2019-05-19T18:17:06.006Z,32.93
2019-05-19T18:19:36.278Z,30.80
2019-05-19T18:22:06.589Z,37.00
2019-05-19T18:24:37.222Z,33.30
2019-05-19T18:27:07.418Z,32.93
2019-05-19T18:29:37.677Z,35.23
2019-05-19T18:32:07.835Z,34.77
2019-05-19T18:34:38.191Z,31.13
2019-05-19T18:37:08.379Z,35.23
2019-05-19T18:39:38.655Z,30.57
2019-05-19T18:42:08.860Z,31.20
2019-05-19T18:44:40.232Z,26.70
2019-05-19T18:47:11.915Z,30.93
2019-05-19T18:49:42.173Z,31.10
2019-05-19T18:52:12.311Z,30.50
2019-05-19T18:54:42.505Z,29.63
2019-05-19T18:57:14.313Z,31.93
2019-05-19T18:59:47.561Z,29.07
2019-05-19T19:02:16.705Z,33.23
2019-05-19T19:04:46.998Z,32.20
2019-05-19T19:07:17.233Z,29.37
2019-05-19T19:09:49.011Z,31.37
2019-05-19T19:12:19.277Z,27.30
2019-05-19T19:14:49.505Z,27.60
2019-05-19T19:17:19.699Z,28.23
2019-05-19T19:19:49.902Z,32.80
2019-05-19T19:22:21.647Z,32.57
2019-05-19T19:24:51.890Z,32.30
2019-05-19T19:27:22.150Z,32.40
2019-05-19T19:30:03.020Z,33.57
2019-05-19T19:32:26.169Z,33.37
2019-05-19T19:34:56.391Z,32.63
2019-05-19T19:37:27.755Z,29.43
2019-05-19T19:40:06.294Z,30.43
2019-05-19T19:42:39.217Z,34.27
2019-05-19T19:45:11.213Z,30.70
2019-05-19T19:47:41.538Z,31.20
2019-05-19T19:50:15.498Z,31.40
2019-05-19T19:52:46.041Z,31.93
2019-05-19T19:55:18.707Z,31.60
2019-05-19T19:57:53.319Z,34.07
2019-05-19T20:00:44.843Z,30.97
2019-05-19T20:03:23.438Z,32.00
2019-05-19T20:05:56.532Z,32.73
2019-05-19T20:08:27.013Z,30.40
2019-05-19T20:10:57.296Z,29.43
2019-05-19T20:13:27.676Z,31.07
2019-05-19T20:15:59.938Z,31.10
2019-05-19T20:18:30.237Z,29.00
2019-05-19T20:21:01.501Z,34.70
2019-05-19T20:23:31.803Z,31.20
2019-05-19T20:26:01.981Z,30.53
2019-05-19T20:28:33.289Z,28.60
2019-05-19T20:31:03.459Z,28.17
2019-05-19T20:33:33.669Z,27.33
2019-05-19T20:36:03.910Z,32.33
2019-05-19T20:38:34.133Z,29.20
2019-05-19T20:41:04.345Z,33.57
2019-05-19T20:43:34.701Z,27.60
2019-05-19T20:46:05.010Z,28.90
2019-05-19T20:48:35.115Z,27.13
2019-05-19T20:51:06.661Z,32.67
2019-05-19T20:53:36.854Z,35.77
2019-05-19T20:56:08.717Z,32.47
2019-05-19T20:58:38.947Z,37.37
2019-05-19T21:01:09.072Z,38.33
2019-05-19T21:03:43.443Z,34.47
2019-05-19T21:06:13.669Z,36.70
2019-05-19T21:08:43.812Z,38.50
2019-05-19T21:11:15.118Z,40.40
2019-05-19T21:13:45.301Z,39.37
2019-05-19T21:16:16.602Z,35.03
2019-05-19T21:19:04.910Z,41.50
2019-05-19T21:21:35.173Z,40.30
2019-05-19T21:24:05.397Z,46.43
2019-05-19T21:26:35.570Z,44.20
2019-05-19T21:29:05.831Z,48.03
2019-05-19T21:31:40.027Z,45.33
2019-05-19T21:34:10.333Z,43.97
2019-05-19T21:36:40.577Z,40.47
2019-05-19T21:39:12.577Z,41.67
2019-05-19T21:41:42.758Z,37.53
2019-05-19T21:44:12.918Z,45.10
2019-05-19T21:46:43.104Z,43.90
2019-05-19T21:49:13.272Z,44.27
2019-05-19T21:51:43.481Z,47.90
2019-05-19T21:54:13.681Z,49.77
2019-05-19T21:56:43.893Z,47.47
2019-05-19T21:59:14.092Z,49.80
2019-05-19T22:01:45.874Z,48.90
2019-05-19T22:04:16.028Z,42.77
2019-05-19T22:06:51.110Z,44.20
2019-05-19T22:09:21.422Z,48.07
2019-05-19T22:11:51.644Z,39.57
2019-05-19T22:14:21.881Z,41.77
2019-05-19T22:16:52.080Z,48.73
2019-05-19T22:19:22.382Z,46.53
2019-05-19T22:21:52.561Z,42.30
2019-05-19T22:24:22.730Z,46.63
2019-05-19T22:26:53.069Z,51.53
2019-05-19T22:29:23.220Z,58.57
2019-05-19T22:31:53.386Z,55.87
2019-05-19T22:34:23.689Z,60.13
2019-05-19T22:36:54.792Z,43.97
2019-05-19T22:39:24.991Z,44.90
2019-05-19T22:41:55.537Z,51.53
2019-05-19T22:44:25.744Z,52.60
2019-05-19T22:46:55.971Z,54.03
2019-05-19T22:49:26.135Z,49.17
2019-05-19T22:51:56.407Z,52.17
2019-05-19T22:54:28.419Z,55.77
2019-05-19T22:56:58.623Z,55.33
2019-05-19T22:59:28.788Z,53.10
2019-05-19T23:01:59.944Z,57.57
2019-05-19T23:04:30.111Z,55.87
2019-05-19T23:07:00.258Z,54.07
2019-05-19T23:09:30.403Z,54.83
2019-05-19T23:12:00.558Z,60.90
2019-05-19T23:14:30.733Z,60.70
2019-05-19T23:17:00.941Z,63.03
2019-05-19T23:19:31.098Z,56.07
2019-05-19T23:22:01.283Z,57.63
2019-05-19T23:24:31.429Z,63.60
2019-05-19T23:27:01.704Z,63.07
2019-05-19T23:29:31.872Z,62.27
2019-05-19T23:32:07.232Z,61.17
2019-05-19T23:34:34.045Z,65.13
2019-05-19T23:37:04.225Z,67.33
2019-05-19T23:39:35.411Z,69.33
2019-05-19T23:42:05.631Z,69.10
2019-05-19T23:44:35.775Z,68.73
2019-05-19T23:47:05.936Z,67.60
2019-05-19T23:49:36.096Z,71.07
2019-05-19T23:52:06.261Z,73.10
2019-05-19T23:54:36.456Z,77.10
2019-05-19T23:57:06.691Z,73.93
2019-05-19T23:59:36.895Z,72.70
